Time;durP1;ratioP1;P1;durP2;ratioP2;P2;SDS_P1;SDS_P2;PMS_P1;PMS_P2;Temp;Humidity;BMP_temperature;BMP_pressure;BME280_temperature;BME280_humidity;BME280_pressure;Samples;Min_cycle;Max_cycle;Signal;HPM_P1;HPM_P2
2022/12/31 00:01:27;;;;;;;2.05;1.00;;;;;;;11.16;100.00;100245.00;10484159;28;20043;-84
2022/12/31 00:06:29;;;;;;;1.77;0.80;;;;;;;11.16;100.00;100241.50;10482368;28;20129;-83
2022/12/31 00:11:30;;;;;;;;;;;;;;;11.21;100.00;100239.94;10447686;28;20029;-84
2022/12/31 00:16:35;;;;;;;2.03;1.00;;;;;;;11.21;100.00;100219.00;10438829;28;19921;-85
2022/12/31 00:21:35;;;;;;;1.80;0.95;;;;;;;11.25;100.00;100217.34;10445240;28;20037;-85
2022/12/31 00:26:36;;;;;;;2.85;1.10;;;;;;;11.25;100.00;100217.34;10455566;28;20036;-84
2022/12/31 00:31:37;;;;;;;1.48;0.65;;;;;;;11.26;100.00;100206.94;10453670;28;20069;-85
2022/12/31 00:36:38;;;;;;;2.25;1.10;;;;;;;11.31;100.00;100209.69;10433381;28;20039;-86
2022/12/31 00:41:38;;;;;;;1.42;0.98;;;;;;;11.30;100.00;100207.91;10456470;28;20048;-84
2022/12/31 00:46:39;;;;;;;2.17;1.30;;;;;;;11.29;100.00;100196.56;10438253;28;20052;-83
2022/12/31 00:51:39;;;;;;;1.80;0.80;;;;;;;11.30;100.00;100187.88;10435752;28;20116;-83
2022/12/31 00:56:40;;;;;;;0.73;0.70;;;;;;;11.35;100.00;100188.00;10464008;28;20047;-84
2022/12/31 01:01:40;;;;;;;0.98;0.70;;;;;;;11.35;100.00;100182.78;10429951;28;20064;-83
2022/12/31 01:06:42;;;;;;;1.48;0.68;;;;;;;11.48;100.00;100180.56;10452294;28;20042;-82
2022/12/31 01:11:42;;;;;;;1.08;0.60;;;;;;;11.53;100.00;100165.88;10431178;28;20052;-84
2022/12/31 01:16:45;;;;;;;0.88;0.45;;;;;;;11.63;100.00;100167.06;10439430;28;20124;-82
2022/12/31 01:21:46;;;;;;;0.30;0.30;;;;;;;11.67;100.00;100169.81;10410709;28;20084;-81
2022/12/31 01:26:46;;;;;;;2.17;0.90;;;;;;;11.72;100.00;100160.38;10439717;28;20432;-83
2022/12/31 01:31:47;;;;;;;1.75;1.02;;;;;;;11.83;100.00;100157.22;10438181;28;20041;-81
2022/12/31 01:36:48;;;;;;;0.70;0.32;;;;;;;11.90;100.00;100181.06;10467011;28;20064;-81
2022/12/31 01:41:49;;;;;;;0.73;0.30;;;;;;;11.99;100.00;100174.31;10450150;28;20132;-82
2022/12/31 01:46:53;;;;;;;1.27;0.32;;;;;;;12.06;100.00;100178.94;10462942;28;20062;-82
2022/12/31 01:51:56;;;;;;;0.38;0.22;;;;;;;12.19;100.00;100173.22;10437718;28;20386;-82
2022/12/31 01:56:56;;;;;;;0.20;0.20;;;;;;;12.29;100.00;100184.88;10457342;28;20041;-82
2022/12/31 02:01:57;;;;;;;1.75;0.30;;;;;;;12.44;100.00;100162.53;10421417;28;20128;-84
2022/12/31 02:07:00;;;;;;;2.40;0.35;;;;;;;12.59;100.00;100164.72;10439964;28;20032;-83
2022/12/31 02:12:00;;;;;;;0.65;0.20;;;;;;;12.63;100.00;100150.84;10432968;28;20440;-80
2022/12/31 02:17:14;;;;;;;0.60;0.30;;;;;;;12.75;100.00;100139.78;10442952;28;20041;-83
2022/12/31 02:22:45;;;;;;;0.57;0.20;;;;;;;12.89;100.00;100148.91;10404116;28;20041;-84
2022/12/31 02:28:19;;;;;;;0.60;0.50;;;;;;;12.99;100.00;100151.78;10442925;28;20061;-82
2022/12/31 02:33:23;;;;;;;0.43;0.43;;;;;;;13.01;100.00;100157.97;10435439;28;20044;-81
2022/12/31 02:38:31;;;;;;;2.50;0.40;;;;;;;12.98;100.00;100150.00;10439064;28;20040;-82
2022/12/31 02:43:32;;;;;;;0.85;0.30;;;;;;;12.98;100.00;100157.88;10432461;28;20032;-81
2022/12/31 02:48:36;;;;;;;0.45;0.20;;;;;;;12.81;100.00;100187.19;10485700;28;20067;-82
2022/12/31 02:53:49;;;;;;;0.40;0.40;;;;;;;12.63;100.00;100209.47;10455375;28;20037;-82
2022/12/31 03:04:33;;;;;;;5.05;0.50;;;;;;;12.37;100.00;100266.47;10404713;28;20389;-80
2022/12/31 03:09:34;;;;;;;0.22;0.20;;;;;;;12.17;100.00;100237.88;10407186;28;20140;-81
2022/12/31 03:14:34;;;;;;;1.15;0.40;;;;;;;12.05;100.00;100261.09;10445279;28;20033;-82
2022/12/31 03:30:21;;;;;;;8.07;1.17;;;;;;;12.11;100.00;100242.94;10445811;28;20034;-81
2022/12/31 03:35:22;;;;;;;5.13;1.65;;;;;;;12.33;100.00;100240.97;10445659;28;20041;-81
2022/12/31 03:40:23;;;;;;;3.00;0.70;;;;;;;12.45;100.00;100240.44;10435877;28;20042;-81
2022/12/31 03:45:24;;;;;;;3.40;0.75;;;;;;;12.51;100.00;100230.13;10442405;28;20098;-81
2022/12/31 03:50:24;;;;;;;2.97;0.98;;;;;;;12.53;100.00;100217.94;10449109;28;20071;-81
2022/12/31 03:55:25;;;;;;;2.45;0.85;;;;;;;12.56;100.00;100231.13;10388323;28;20046;-80
2022/12/31 04:00:26;;;;;;;4.63;0.85;;;;;;;12.43;100.00;100240.41;10392068;28;20113;-81
2022/12/31 04:05:26;;;;;;;4.75;0.90;;;;;;;12.56;100.00;100222.38;10441414;28;20037;-81
2022/12/31 04:10:27;;;;;;;3.15;1.55;;;;;;;12.72;100.00;100200.06;10444071;28;20045;-80
2022/12/31 04:15:27;;;;;;;3.10;0.80;;;;;;;13.05;100.00;100183.47;10431198;28;20037;-80
2022/12/31 04:20:28;;;;;;;3.38;0.70;;;;;;;13.13;100.00;100160.91;10441153;28;20171;-80
2022/12/31 04:25:28;;;;;;;1.55;0.50;;;;;;;13.32;100.00;100167.53;10429717;28;20124;-81
2022/12/31 04:30:29;;;;;;;2.45;0.55;;;;;;;13.49;100.00;100135.56;10471831;28;20045;-88
2022/12/31 04:35:29;;;;;;;1.23;0.50;;;;;;;13.70;100.00;100173.72;10438126;28;20092;-80
2022/12/31 04:40:30;;;;;;;12.88;2.05;;;;;;;13.78;100.00;100164.28;10437388;28;20075;-80
2022/12/31 04:45:31;;;;;;;3.47;0.80;;;;;;;13.77;100.00;100160.75;10457300;28;20049;-81
2022/12/31 04:50:31;;;;;;;3.42;1.20;;;;;;;13.83;100.00;100160.03;10437868;28;20143;-81
2022/12/31 04:55:32;;;;;;;2.53;0.60;;;;;;;14.02;100.00;100115.72;10439709;28;20037;-82
2022/12/31 05:00:32;;;;;;;4.13;1.55;;;;;;;14.16;100.00;100150.19;10436407;28;20076;-83
2022/12/31 05:05:37;;;;;;;2.92;0.60;;;;;;;14.21;100.00;100181.03;10441368;28;20036;-82
2022/12/31 05:10:42;;;;;;;2.72;0.93;;;;;;;14.34;100.00;100158.47;10467444;28;20542;-85
2022/12/31 05:15:42;;;;;;;16.05;1.50;;;;;;;14.38;100.00;100141.03;10442836;28;20496;-81
2022/12/31 05:20:43;;;;;;;1.55;0.68;;;;;;;14.35;100.00;100183.94;10408155;28;20041;-81
2022/12/31 05:25:44;;;;;;;1.77;0.80;;;;;;;14.37;100.00;100186.63;10400404;28;20045;-82
2022/12/31 05:30:47;;;;;;;3.03;1.15;;;;;;;14.07;100.00;100225.44;10386277;28;20069;-81
2022/12/31 05:35:48;;;;;;;4.82;0.85;;;;;;;13.87;100.00;100216.19;10447266;28;20045;-83
2022/12/31 05:40:48;;;;;;;7.28;1.08;;;;;;;13.94;100.00;100220.75;10443178;28;20069;-86
2022/12/31 05:45:49;;;;;;;2.10;0.85;;;;;;;14.03;100.00;100236.75;10462503;28;20052;-84
2022/12/31 05:50:49;;;;;;;2.67;0.60;;;;;;;14.26;100.00;100232.88;10466755;28;20567;-85
2022/12/31 05:55:50;;;;;;;3.90;1.98;;;;;;;14.39;100.00;100224.41;10435517;28;20087;-84
2022/12/31 06:00:51;;;;;;;4.80;0.80;;;;;;;14.37;100.00;100219.09;10406519;28;20087;-84
2022/12/31 06:05:51;;;;;;;3.13;0.90;;;;;;;14.47;100.00;100219.28;10461547;28;20408;-80
2022/12/31 06:10:52;;;;;;;2.78;1.00;;;;;;;14.54;100.00;100215.94;10477139;28;20121;-81
2022/12/31 06:15:52;;;;;;;3.22;0.88;;;;;;;14.56;100.00;100230.00;10424528;28;20053;-81
2022/12/31 06:20:53;;;;;;;3.20;1.38;;;;;;;14.46;100.00;100225.41;10479809;28;20052;-82
2022/12/31 06:25:53;;;;;;;3.80;1.20;;;;;;;14.50;100.00;100243.06;10393374;28;20045;-85
2022/12/31 06:31:04;;;;;;;3.70;1.30;;;;;;;14.65;100.00;100247.78;10423918;28;20136;-82
2022/12/31 06:36:05;;;;;;;4.28;1.20;;;;;;;14.65;100.00;100235.47;10432418;28;20124;-81
2022/12/31 06:41:09;;;;;;;3.10;0.95;;;;;;;14.82;100.00;100256.94;10444830;28;20041;-83
2022/12/31 06:46:11;;;;;;;4.13;1.15;;;;;;;14.79;100.00;100277.94;10456739;28;20044;-82
2022/12/31 06:51:12;;;;;;;;;;;;;;;14.82;100.00;100256.03;10455956;28;20484;-82
2022/12/31 06:56:20;;;;;;;2.88;0.90;;;;;;;14.87;100.00;100264.06;10438383;28;20308;-83
2022/12/31 07:01:45;;;;;;;4.40;1.30;;;;;;;14.78;100.00;100268.28;10462387;28;20441;-83
2022/12/31 07:06:58;;;;;;;8.80;1.55;;;;;;;14.72;100.00;100278.69;10439277;28;20052;-82
2022/12/31 07:12:05;;;;;;;4.57;1.20;;;;;;;14.60;100.00;100294.19;10425575;28;20045;-82
2022/12/31 07:17:28;;;;;;;4.30;0.93;;;;;;;14.59;100.00;100288.00;10472128;28;20106;-83
2022/12/31 07:22:29;;;;;;;2.65;0.95;;;;;;;14.61;100.00;100274.91;10475316;28;20087;-81
2022/12/31 07:28:04;;;;;;;2.42;0.68;;;;;;;14.70;100.00;100287.38;10452121;28;20238;-82
2022/12/31 07:33:11;;;;;;;3.35;1.05;;;;;;;14.72;100.00;100297.13;10465888;28;20485;-83
2022/12/31 07:38:37;;;;;;;4.40;0.85;;;;;;;14.81;100.00;100284.16;10445953;28;20037;-82
2022/12/31 07:43:49;;;;;;;8.63;1.38;;;;;;;14.89;100.00;100286.06;10424803;28;20044;-82
2022/12/31 07:48:50;;;;;;;4.10;1.20;;;;;;;15.02;100.00;100287.16;10453501;28;20427;-84
2022/12/31 07:53:51;;;;;;;2.88;1.17;;;;;;;14.98;100.00;100287.09;10445817;28;20094;-82
2022/12/31 07:59:05;;;;;;;4.07;1.60;;;;;;;15.19;100.00;100258.53;10396699;28;20668;-83
2022/12/31 08:04:43;;;;;;;2.72;0.88;;;;;;;15.06;100.00;100275.84;10429781;28;20119;-82
2022/12/31 08:10:02;;;;;;;2.78;0.90;;;;;;;15.07;100.00;100296.06;10479719;28;20041;-81
2022/12/31 08:15:13;;;;;;;5.28;2.67;;;;;;;14.99;100.00;100309.09;10484085;28;20044;-81
2022/12/31 08:20:14;;;;;;;2.97;0.80;;;;;;;14.84;100.00;100301.75;10435622;28;20413;-81
2022/12/31 08:25:21;;;;;;;2.17;1.10;;;;;;;14.78;100.00;100312.16;10448970;28;20037;-83
2022/12/31 08:30:21;;;;;;;2.28;0.80;;;;;;;14.94;100.00;100303.72;10460247;28;20485;-81
2022/12/31 08:35:50;;;;;;;5.47;0.77;;;;;;;14.96;100.00;100324.84;10417113;28;20047;-84
2022/12/31 08:40:56;;;;;;;1.10;0.77;;;;;;;15.10;100.00;100306.66;10457160;28;20561;-82
2022/12/31 08:45:56;;;;;;;2.20;0.90;;;;;;;15.25;100.00;100343.00;10412132;28;20045;-82
2022/12/31 08:50:57;;;;;;;5.15;0.93;;;;;;;15.20;100.00;100374.53;10397006;28;20033;-82
2022/12/31 08:56:06;;;;;;;2.78;0.73;;;;;;;15.29;100.00;100380.84;10441597;28;20041;-81
2022/12/31 09:01:06;;;;;;;5.55;2.40;;;;;;;15.25;100.00;100398.34;10455880;28;20048;-80
2022/12/31 09:06:09;;;;;;;1.90;0.60;;;;;;;15.39;100.00;100399.53;10436874;28;20573;-82
2022/12/31 09:11:19;;;;;;;2.97;1.05;;;;;;;15.37;100.00;100408.25;10439516;28;20033;-83
2022/12/31 09:16:27;;;;;;;2.42;1.00;;;;;;;15.37;100.00;100426.72;10467004;28;20075;-81
2022/12/31 09:21:27;;;;;;;3.53;1.02;;;;;;;15.31;100.00;100411.66;10474499;28;20554;-83
2022/12/31 09:26:49;;;;;;;5.88;1.25;;;;;;;15.19;100.00;100437.78;10429679;28;20552;-83
2022/12/31 09:32:22;;;;;;;5.72;0.82;;;;;;;15.32;100.00;100434.53;10439160;28;20130;-83
2022/12/31 09:37:36;;;;;;;;;;;;;;;15.36;100.00;100452.22;10428098;28;20559;-83
2022/12/31 09:42:52;;;;;;;5.07;0.95;;;;;;;15.50;100.00;100457.75;10399529;28;19960;-85
2022/12/31 09:48:11;;;;;;;4.70;0.93;;;;;;;15.61;100.00;100471.19;10404224;28;20077;-82
2022/12/31 09:53:26;;;;;;;9.45;1.80;;;;;;;15.66;100.00;100466.88;10439040;28;20044;-83
2022/12/31 09:58:27;;;;;;;3.92;1.08;;;;;;;15.74;100.00;100472.31;10440303;28;20075;-84
2022/12/31 10:03:48;;;;;;;3.75;1.48;;;;;;;15.71;100.00;100408.94;10439638;28;20052;-82
2022/12/31 10:09:11;;;;;;;2.95;1.23;;;;;;;15.95;100.00;100479.81;10438611;28;20041;-83
2022/12/31 10:14:32;;;;;;;3.50;1.20;;;;;;;15.95;100.00;100487.72;10438467;28;20845;-82
2022/12/31 10:20:05;;;;;;;4.60;1.20;;;;;;;15.91;100.00;100500.81;10438221;28;20183;-83
2022/12/31 10:25:08;;;;;;;;;;;;;;;15.96;100.00;100492.13;10439032;28;20477;-83
2022/12/31 10:30:20;;;;;;;4.50;1.25;;;;;;;15.94;100.00;100493.84;10442093;28;20015;-84
2022/12/31 10:35:58;;;;;;;3.72;1.30;;;;;;;16.06;100.00;100472.06;10446464;28;20052;-83
2022/12/31 10:41:10;;;;;;;8.07;1.45;;;;;;;16.12;100.00;100482.75;10402649;28;20148;-85
2022/12/31 10:46:29;;;;;;;5.38;1.25;;;;;;;16.14;100.00;100493.34;10405048;28;20041;-83
2022/12/31 10:51:54;;;;;;;5.90;1.00;;;;;;;16.08;100.00;100477.41;10405085;28;20033;-82
2022/12/31 10:56:57;;;;;;;7.30;1.60;;;;;;;16.11;100.00;100480.97;10390904;28;20477;-82
2022/12/31 11:02:30;;;;;;;5.45;1.52;;;;;;;16.08;100.00;100470.34;10406380;28;20391;-85
2022/12/31 11:07:42;;;;;;;20.25;2.05;;;;;;;15.91;100.00;100509.63;10361356;28;20049;-85
2022/12/31 11:12:58;;;;;;;4.15;1.70;;;;;;;16.03;100.00;100510.72;10379507;28;20042;-84
2022/12/31 11:18:36;;;;;;;5.10;1.58;;;;;;;15.98;100.00;100497.44;10369384;28;20122;-83
2022/12/31 11:23:53;;;;;;;9.82;2.40;;;;;;;15.91;100.00;100453.31;10424013;28;20481;-82
2022/12/31 11:29:18;;;;;;;3.08;0.82;;;;;;;16.03;100.00;100494.91;10488459;28;20397;-83
2022/12/31 11:34:37;;;;;;;4.70;1.08;;;;;;;16.08;100.00;100501.16;10483190;28;20044;-82
2022/12/31 11:39:46;;;;;;;2.33;1.10;;;;;;;15.96;100.00;100494.78;10453780;28;20480;-85
2022/12/31 11:45:25;;;;;;;4.13;1.52;;;;;;;15.79;100.00;100489.13;10486611;28;20033;-80
2022/12/31 11:50:41;;;;;;;4.57;1.35;;;;;;;15.17;100.00;100510.66;10383960;28;20901;-84
2022/12/31 11:55:56;;;;;;;7.75;3.03;;;;;;;14.79;100.00;100525.56;10460393;28;20401;-81
2022/12/31 12:01:03;;;;;;;5.05;1.80;;;;;;;14.76;100.00;100537.75;10448758;28;20121;-81
2022/12/31 12:06:04;;;;;;;2.92;1.20;;;;;;;14.50;100.00;100532.69;10423307;28;20405;-83
2022/12/31 12:11:20;;;;;;;3.17;1.55;;;;;;;14.37;100.00;100539.38;10442356;28;20045;-82
2022/12/31 12:16:21;;;;;;;5.40;1.50;;;;;;;14.60;100.00;100524.16;10440247;28;20072;-83
2022/12/31 12:21:22;;;;;;;4.45;1.40;;;;;;;14.79;100.00;100524.66;10441176;28;20124;-83
2022/12/31 12:26:32;;;;;;;5.70;1.52;;;;;;;14.92;100.00;100546.97;10424668;28;20127;-84
2022/12/31 12:31:33;;;;;;;4.65;1.00;;;;;;;15.11;100.00;100525.47;10442385;28;20044;-81
2022/12/31 12:36:33;;;;;;;3.67;1.55;;;;;;;15.23;100.00;100526.59;10425355;28;20245;-81
2022/12/31 12:41:34;;;;;;;6.53;1.30;;;;;;;15.33;100.00;100517.16;10423150;28;20028;-81
2022/12/31 12:46:44;;;;;;;10.00;4.18;;;;;;;15.36;100.00;100518.13;10416555;28;20670;-80
2022/12/31 12:51:47;;;;;;;4.93;2.08;;;;;;;15.36;100.00;100517.22;10413492;28;20045;-82
2022/12/31 12:56:50;;;;;;;7.10;3.15;;;;;;;15.39;100.00;100505.00;10456225;28;20044;-84
2022/12/31 13:02:00;;;;;;;4.50;1.50;;;;;;;15.54;100.00;100520.25;10440727;28;20492;-83
2022/12/31 13:07:42;;;;;;;10.38;2.45;;;;;;;15.86;100.00;100527.09;10417444;28;20498;-83
2022/12/31 13:12:54;;;;;;;4.22;1.30;;;;;;;15.70;100.00;100547.88;10402339;28;20095;-82
2022/12/31 13:18:27;;;;;;;9.57;3.28;;;;;;;15.30;100.00;100506.53;10452673;28;20552;-85
2022/12/31 13:23:35;;;;;;;5.65;1.67;;;;;;;15.15;100.00;100554.53;10457197;28;20037;-83
2022/12/31 13:28:37;;;;;;;6.03;2.10;;;;;;;14.95;100.00;100541.75;10425116;28;20060;-81
2022/12/31 13:33:49;;;;;;;4.78;1.63;;;;;;;14.82;100.00;100525.66;10423374;28;20432;-84
2022/12/31 13:38:56;;;;;;;7.28;3.30;;;;;;;14.55;100.00;100549.50;10417579;28;20052;-82
2022/12/31 13:44:05;;;;;;;5.90;2.47;;;;;;;14.62;100.00;100514.56;10413368;28;20056;-83
2022/12/31 13:49:16;;;;;;;8.40;2.47;;;;;;;14.70;100.00;100520.06;10399668;28;20037;-83
2022/12/31 13:54:41;;;;;;;5.18;1.90;;;;;;;14.80;100.00;100510.66;10415315;28;20482;-83
2022/12/31 13:59:43;;;;;;;7.75;1.75;;;;;;;14.94;100.00;100513.63;10418358;28;20048;-81
2022/12/31 14:04:49;;;;;;;9.27;3.40;;;;;;;14.98;100.00;100515.50;10391388;28;20037;-81
2022/12/31 14:09:49;;;;;;;4.45;1.42;;;;;;;15.01;100.00;100512.03;10401487;28;20092;-82
2022/12/31 14:14:50;;;;;;;5.13;2.35;;;;;;;15.13;100.00;100509.66;10430001;28;20172;-81
2022/12/31 14:19:57;;;;;;;4.25;1.92;;;;;;;15.04;100.00;100491.00;10434567;28;20501;-83
2022/12/31 14:24:57;;;;;;;12.98;2.90;;;;;;;14.95;100.00;100512.78;10429868;28;20130;-81
2022/12/31 14:30:06;;;;;;;5.85;2.20;;;;;;;14.97;100.00;100511.06;10466140;28;20033;-82
2022/12/31 14:35:33;;;;;;;6.68;2.33;;;;;;;14.85;100.00;100534.47;10459484;28;20441;-81
2022/12/31 14:40:36;;;;;;;8.85;1.92;;;;;;;14.71;100.00;100536.75;10424309;28;20049;-84
2022/12/31 14:45:37;;;;;;;5.78;3.22;;;;;;;14.46;100.00;100533.44;10440923;28;20052;-79
2022/12/31 14:50:37;;;;;;;6.75;2.20;;;;;;;14.33;100.00;100561.22;10435012;28;20041;-80
2022/12/31 14:55:39;;;;;;;6.65;2.00;;;;;;;14.30;100.00;100550.59;10425650;28;20516;-78
2022/12/31 15:00:53;;;;;;;3.92;2.20;;;;;;;14.29;100.00;100562.84;10386402;28;20041;-78
2022/12/31 15:06:07;;;;;;;5.55;1.67;;;;;;;14.21;100.00;100556.47;10396526;28;20124;-78
2022/12/31 15:11:29;;;;;;;6.03;1.60;;;;;;;14.14;100.00;100560.69;10380176;28;20065;-77
2022/12/31 15:17:08;;;;;;;4.53;1.77;;;;;;;13.97;100.00;100577.75;10389358;28;20045;-79
2022/12/31 15:22:43;;;;;;;4.28;1.88;;;;;;;13.79;100.00;100579.84;10442840;28;20132;-81
2022/12/31 15:27:44;;;;;;;7.13;1.20;;;;;;;13.78;100.00;100561.41;10436962;28;20049;-81
2022/12/31 15:32:45;;;;;;;5.13;2.35;;;;;;;13.64;100.00;100563.63;10410623;28;20512;-81
2022/12/31 15:37:56;;;;;;;6.38;2.05;;;;;;;13.65;100.00;100555.78;10400717;28;20037;-80
2022/12/31 15:43:01;;;;;;;7.03;2.20;;;;;;;13.68;100.00;100548.84;10409312;28;20045;-79
2022/12/31 15:48:07;;;;;;;6.97;2.00;;;;;;;13.57;100.00;100551.13;10442353;28;20124;-77
2022/12/31 15:53:08;;;;;;;5.85;2.15;;;;;;;13.55;100.00;100559.00;10435975;28;20101;-79
2022/12/31 15:58:12;;;;;;;4.70;1.70;;;;;;;13.50;100.00;100561.47;10485355;28;20041;-78
2022/12/31 16:03:22;;;;;;;13.35;2.15;;;;;;;13.56;100.00;100549.34;10463560;28;21691;-80
2022/12/31 16:08:23;;;;;;;6.40;1.80;;;;;;;13.65;100.00;100541.72;10400833;28;20037;-80
2022/12/31 16:13:24;;;;;;;3.42;1.75;;;;;;;13.64;100.00;100547.84;10368672;28;20033;-80
2022/12/31 16:18:24;;;;;;;5.60;2.22;;;;;;;13.53;100.00;100554.50;10389592;28;20065;-79
2022/12/31 16:23:26;;;;;;;7.30;3.42;;;;;;;13.46;100.00;100551.69;10376276;28;20064;-79
2022/12/31 16:28:30;;;;;;;6.43;1.57;;;;;;;13.56;100.00;100551.97;10375517;28;20041;-80
2022/12/31 16:33:31;;;;;;;8.93;1.95;;;;;;;13.51;100.00;100546.59;10411849;28;20036;-84
2022/12/31 16:38:33;;;;;;;4.28;1.90;;;;;;;13.37;100.00;100546.13;10381970;28;20041;-86
2022/12/31 16:43:38;;;;;;;4.22;1.33;;;;;;;13.23;100.00;100556.22;10418324;28;20030;-86
2022/12/31 16:48:38;;;;;;;5.05;2.45;;;;;;;13.25;100.00;100551.00;10411202;28;20034;-88
2022/12/31 16:53:39;;;;;;;3.17;2.22;;;;;;;13.20;100.00;100549.09;10399985;28;20454;-81
2022/12/31 16:58:40;;;;;;;12.02;3.05;;;;;;;13.32;100.00;100539.81;10413705;28;20175;-80
2022/12/31 17:03:43;;;;;;;5.63;2.50;;;;;;;13.30;100.00;100547.69;10425084;28;20551;-84
2022/12/31 17:08:43;;;;;;;11.63;2.47;;;;;;;13.41;100.00;100532.22;10406254;28;20128;-84
2022/12/31 17:13:44;;;;;;;66.35;51.53;;;;;;;13.50;100.00;100524.66;10401285;28;20063;-83
2022/12/31 17:18:46;;;;;;;5.63;2.60;;;;;;;13.49;100.00;100522.88;10389089;28;20117;-85
2022/12/31 17:23:51;;;;;;;8.23;2.33;;;;;;;13.41;100.00;100523.47;10399263;28;20041;-85
2022/12/31 17:28:52;;;;;;;8.75;2.63;;;;;;;13.31;100.00;100538.94;10419661;28;20068;-84
2022/12/31 17:33:53;;;;;;;15.70;4.60;;;;;;;13.31;100.00;100538.94;10436356;28;20069;-86
2022/12/31 17:38:54;;;;;;;6.35;2.60;;;;;;;13.20;100.00;100535.09;10423778;28;20128;-84
2022/12/31 17:43:55;;;;;;;6.55;3.13;;;;;;;13.18;100.00;100521.00;10434378;28;20047;-83
2022/12/31 17:48:58;;;;;;;6.93;3.15;;;;;;;13.15;100.00;100520.91;10444472;28;20060;-83
2022/12/31 17:53:59;;;;;;;7.25;2.83;;;;;;;13.15;100.00;100521.78;10465655;28;20037;-84
2022/12/31 17:58:59;;;;;;;9.55;2.03;;;;;;;13.21;100.00;100505.34;10448029;28;20039;-83
2022/12/31 18:04:00;;;;;;;4.72;2.58;;;;;;;13.24;100.00;100510.69;10469440;28;20136;-83
2022/12/31 18:09:00;;;;;;;11.00;3.55;;;;;;;13.24;100.00;100500.19;10468582;28;20043;-83
2022/12/31 18:14:01;;;;;;;13.93;3.55;;;;;;;13.13;100.00;100507.72;10488550;28;20045;-83
2022/12/31 18:19:01;;;;;;;6.07;2.53;;;;;;;13.26;100.00;100497.59;10474423;28;20051;-84
2022/12/31 18:24:02;;;;;;;5.82;2.45;;;;;;;13.34;100.00;100507.50;10446935;28;20131;-83
2022/12/31 18:29:14;;;;;;;6.03;1.83;;;;;;;13.29;100.00;100516.06;10469798;28;20374;-83
2022/12/31 18:34:15;;;;;;;11.20;3.17;;;;;;;13.19;100.00;100507.91;10444068;28;20493;-83
2022/12/31 18:39:16;;;;;;;5.67;2.03;;;;;;;13.30;100.00;100521.41;10433731;28;20052;-84
2022/12/31 18:44:16;;;;;;;6.32;1.90;;;;;;;13.23;100.00;100506.28;10447962;28;20429;-85
2022/12/31 18:49:20;;;;;;;6.13;2.47;;;;;;;13.30;100.00;100505.63;10463083;28;20068;-83
2022/12/31 18:54:20;;;;;;;4.25;2.42;;;;;;;13.28;100.00;100495.91;10412841;28;20123;-84
2022/12/31 18:59:21;;;;;;;10.23;1.98;;;;;;;13.27;100.00;100495.03;10455582;28;20037;-85
2022/12/31 19:04:21;;;;;;;11.23;2.78;;;;;;;13.24;100.00;100512.41;10445121;28;20041;-86
2022/12/31 19:09:22;;;;;;;8.05;2.92;;;;;;;13.21;100.00;100522.00;10428114;28;20044;-86
2022/12/31 19:14:23;;;;;;;9.35;2.63;;;;;;;13.31;100.00;100523.19;10413298;28;20043;-85
2022/12/31 19:19:24;;;;;;;8.00;2.92;;;;;;;13.31;100.00;100531.06;10404488;28;20103;-85
2022/12/31 19:24:25;;;;;;;10.52;1.85;;;;;;;13.29;100.00;100529.22;10454868;28;20190;-85
2022/12/31 19:29:26;;;;;;;7.73;2.57;;;;;;;13.28;99.34;100525.72;10428184;28;20029;-84
2022/12/31 19:34:26;;;;;;;6.97;3.28;;;;;;;13.33;97.40;100523.22;10459353;28;20143;-85
2022/12/31 19:39:27;;;;;;;7.80;2.80;;;;;;;13.47;94.94;100542.97;10440475;28;20668;-86
2022/12/31 19:44:27;;;;;;;6.95;2.28;;;;;;;13.60;92.14;100533.72;10434759;28;20037;-85
2022/12/31 19:49:28;;;;;;;6.72;2.53;;;;;;;13.74;87.49;100552.53;10402891;28;20037;-84
2022/12/31 19:54:28;;;;;;;11.15;3.53;;;;;;;13.76;85.94;100544.69;10469493;28;20052;-83
2022/12/31 19:59:29;;;;;;;10.45;3.70;;;;;;;13.90;83.13;100558.25;10485133;28;20483;-85
2022/12/31 20:04:29;;;;;;;10.63;2.80;;;;;;;13.87;82.80;100566.03;10448236;28;20048;-84
2022/12/31 20:09:30;;;;;;;8.63;2.67;;;;;;;14.07;79.96;100564.88;10448335;28;20489;-84
2022/12/31 20:14:31;;;;;;;11.25;1.80;;;;;;;14.22;78.30;100567.06;10436953;28;20041;-82
2022/12/31 20:19:31;;;;;;;7.25;3.58;;;;;;;14.14;79.70;100587.00;10411482;28;20049;-81
2022/12/31 20:24:32;;;;;;;11.50;3.50;;;;;;;14.27;77.71;100587.38;10401674;28;20076;-84
2022/12/31 20:29:33;;;;;;;6.68;3.15;;;;;;;14.32;75.61;100586.63;10471076;28;20540;-85
2022/12/31 20:34:33;;;;;;;6.43;1.95;;;;;;;14.42;75.20;100586.88;10445574;28;20496;-84
2022/12/31 20:39:34;;;;;;;8.90;3.03;;;;;;;14.49;74.79;100610.81;10475934;28;20071;-84
2022/12/31 20:44:34;;;;;;;11.00;3.17;;;;;;;14.60;73.03;100595.28;10443718;28;20037;-85
2022/12/31 20:49:35;;;;;;;7.90;2.75;;;;;;;14.52;72.28;100578.38;10419587;28;20106;-85
2022/12/31 20:54:36;;;;;;;6.22;2.35;;;;;;;14.36;73.46;100601.66;10462237;28;20097;-86
2022/12/31 20:59:36;;;;;;;9.52;3.55;;;;;;;14.45;71.84;100593.13;10407692;28;20417;-84
2022/12/31 21:04:37;;;;;;;10.00;2.83;;;;;;;14.59;70.74;100611.06;10422746;28;20045;-85
2022/12/31 21:09:37;;;;;;;17.27;2.97;;;;;;;14.62;70.22;100613.78;10452488;28;20064;-84
2022/12/31 21:14:38;;;;;;;6.15;2.28;;;;;;;14.59;69.60;100622.47;10438973;28;20041;-86
2022/12/31 21:19:38;;;;;;;9.00;2.70;;;;;;;14.60;69.96;100594.41;10443203;28;20040;-85
2022/12/31 21:24:39;;;;;;;8.00;1.90;;;;;;;14.57;69.56;100620.66;10446056;28;20057;-85
2022/12/31 21:29:39;;;;;;;7.10;2.97;;;;;;;14.60;70.02;100634.78;10442024;28;20386;-84
2022/12/31 21:34:40;;;;;;;11.40;2.78;;;;;;;14.64;69.11;100625.25;10438417;28;20051;-87
2022/12/31 21:39:40;;;;;;;11.70;3.63;;;;;;;14.49;68.65;100631.88;10441946;28;20028;-85
2022/12/31 21:44:41;;;;;;;6.80;2.95;;;;;;;14.45;69.60;100631.72;10474573;28;20050;-85
2022/12/31 21:49:42;;;;;;;6.38;2.33;;;;;;;14.38;69.89;100628.03;10482513;28;20032;-89
2022/12/31 22:05:22;;;;;;;10.95;2.13;;;;;;;14.40;68.22;100636.88;10464118;28;20040;-85
2022/12/31 22:10:22;;;;;;;9.35;2.50;;;;;;;14.27;69.46;100643.50;10483387;28;20476;-86
2022/12/31 22:15:23;;;;;;;8.65;2.38;;;;;;;14.27;69.20;100645.28;10444225;28;20053;-87
2022/12/31 22:20:23;;;;;;;8.40;2.38;;;;;;;14.32;68.76;100664.72;10421852;28;20049;-85
2022/12/31 22:25:24;;;;;;;7.20;2.35;;;;;;;14.28;69.40;100666.34;10451674;28;20493;-85
2022/12/31 22:30:24;;;;;;;9.43;2.78;;;;;;;14.48;68.71;100666.94;10449651;28;20504;-86
2022/12/31 22:35:25;;;;;;;7.72;2.40;;;;;;;14.71;65.92;100665.81;10481512;28;20063;-88
2022/12/31 22:40:25;;;;;;;6.63;4.35;;;;;;;14.73;66.66;100670.31;10471370;28;20040;-87
2022/12/31 22:45:26;;;;;;;7.43;2.83;;;;;;;14.78;65.65;100667.78;10458451;28;20051;-87
2022/12/31 22:50:26;;;;;;;5.90;1.88;;;;;;;14.70;66.52;100669.31;10448233;28;20055;-86
2022/12/31 22:55:27;;;;;;;8.02;2.58;;;;;;;14.82;65.73;100680.19;10483715;28;20036;-87
2022/12/31 23:00:38;;;;;;;9.45;2.33;;;;;;;14.88;65.45;100692.66;10452071;28;20125;-86
2022/12/31 23:05:39;;;;;;;7.33;2.17;;;;;;;14.76;66.91;100675.66;10438527;28;20048;-87
2022/12/31 23:10:58;;;;;;;10.35;2.85;;;;;;;14.75;65.78;100673.88;10387481;28;20149;-87
2022/12/31 23:26:37;;;;;;;14.27;6.25;;;;;;;14.91;64.04;100704.16;10450876;28;20127;-86
2022/12/31 23:31:37;;;;;;;17.10;5.88;;;;;;;14.85;65.10;100724.19;10443015;28;20025;-87
2022/12/31 23:36:38;;;;;;;13.10;4.57;;;;;;;14.89;64.49;100708.47;10443030;28;20041;-85
2022/12/31 23:41:39;;;;;;;11.75;4.43;;;;;;;14.90;65.07;100712.91;10407398;28;20128;-87
2022/12/31 23:46:39;;;;;;;6.25;4.15;;;;;;;14.81;63.60;100723.19;10387454;28;20044;-86